Wetterdaten: Woche 01.08.05 - 07.08.05 (KW31)
Datum Zeit Temperatur Luftfeuchte Luftdruck Niederschlag Wind Richtung Sonne Solar Taupunkt Windchill
01.08.2005 00:00 17.3 C 70 % 1017.2 hPa 0.0 l/m 0.0 km/h (0 Bft) N 0.00 h 0 W/m 11.6 C 17.3 C
01.08.2005 01:00 17.5 C 66 % 1017.2 hPa 0.0 l/m 0.0 km/h (0 Bft) N 0.00 h 0 W/m 11.1 C 17.5 C
01.08.2005 02:00 16.8 C 72 % 1016.7 hPa 0.0 l/m 0.5 km/h (0 Bft) W 0.00 h 0 W/m 11.7 C 16.8 C
01.08.2005 03:00 16.4 C 75 % 1016.8 hPa 0.0 l/m 0.0 km/h (0 Bft) N 0.00 h 0 W/m 11.9 C 16.4 C
01.08.2005 04:00 16.1 C 76 % 1016.4 hPa 0.0 l/m 0.1 km/h (0 Bft) N 0.00 h 0 W/m 11.8 C 16.1 C
01.08.2005 05:00 15.3 C 79 % 1016.6 hPa 0.0 l/m 0.0 km/h (0 Bft) N 0.00 h 0 W/m 11.7 C 15.3 C
01.08.2005 06:00 14.7 C 84 % 1017.4 hPa 0.0 l/m 0.0 km/h (0 Bft) N 0.00 h 25 W/m 12.0 C 14.7 C
01.08.2005 07:00 15.1 C 81 % 1017.5 hPa 0.0 l/m 0.1 km/h (0 Bft) W-NW 0.63 h 156 W/m 11.8 C 15.1 C
01.08.2005 08:00 16.5 C 72 % 1017.3 hPa 0.0 l/m 1.7 km/h (1 Bft) W-NW 1.00 h 368 W/m 11.5 C 16.5 C
01.08.2005 09:00 18.3 C 64 % 1017.1 hPa 0.0 l/m 0.9 km/h (0 Bft) O 1.00 h 508 W/m 11.5 C 18.3 C
01.08.2005 10:00 20.2 C 57 % 1016.5 hPa 0.0 l/m 2.4 km/h (1 Bft) O-NO 1.00 h 628 W/m 11.4 C 20.2 C
01.08.2005 11:00 22.3 C 55 % 1015.6 hPa 0.0 l/m 7.5 km/h (2 Bft) O-SO 1.00 h 731 W/m 12.6 C 22.3 C
01.08.2005 12:00 23.2 C 50 % 1015.4 hPa 0.0 l/m 7.5 km/h (2 Bft) O-SO 0.93 h 765 W/m 12.3 C 23.2 C
01.08.2005 13:00 24.3 C 46 % 1015.3 hPa 0.0 l/m 7.5 km/h (2 Bft) O-SO 1.00 h 847 W/m 11.8 C 24.3 C
01.08.2005 14:00 25.9 C 42 % 1014.6 hPa 0.0 l/m 12.0 km/h (2 Bft) O-SO 1.02 h 854 W/m 11.9 C 25.9 C
01.08.2005 15:00 25.3 C 43 % 1014.1 hPa 0.0 l/m 11.2 km/h (2 Bft) W-NW 0.40 h 463 W/m 11.7 C 25.3 C
01.08.2005 16:00 26.3 C 40 % 1014.0 hPa 0.0 l/m 2.4 km/h (1 Bft) NW 0.78 h 667 W/m 11.5 C 26.3 C
01.08.2005 17:00 25.9 C 42 % 1014.1 hPa 0.0 l/m 3.2 km/h (1 Bft) O 0.42 h 344 W/m 11.9 C 25.9 C
01.08.2005 18:00 26.2 C 41 % 1014.0 hPa 0.0 l/m 0.1 km/h (0 Bft) NO 0.50 h 251 W/m 11.7 C 26.2 C
01.08.2005 19:00 24.1 C 47 % 1014.3 hPa 0.0 l/m 1.1 km/h (0 Bft) O 0.00 h 60 W/m 11.9 C 24.1 C
01.08.2005 20:00 22.6 C 60 % 1014.5 hPa 0.0 l/m 2.2 km/h (1 Bft) O 0.00 h 20 W/m 14.3 C 22.6 C
01.08.2005 21:00 21.7 C 63 % 1015.2 hPa 0.0 l/m 0.0 km/h (0 Bft) N 0.00 h 0 W/m 14.4 C 21.7 C
01.08.2005 22:00 20.8 C 67 % 1015.3 hPa 0.0 l/m 0.1 km/h (0 Bft) N 0.00 h 0 W/m 14.3 C 20.8 C
01.08.2005 23:00 20.3 C 69 % 1015.8 hPa 0.0 l/m 1.6 km/h (1 Bft) O-SO 0.00 h 0 W/m 14.5 C 20.3 C
02.08.2005 00:00 19.4 C 76 % 1016.2 hPa 1.0 l/m 0.6 km/h (0 Bft) O-SO 0.00 h 0 W/m 15.0 C 19.4 C
02.08.2005 01:00 17.7 C 92 % 1017.2 hPa 1.0 l/m 0.0 km/h (0 Bft) N 0.00 h 0 W/m 16.4 C 17.7 C
02.08.2005 02:00 16.3 C 96 % 1016.8 hPa 0.3 l/m 0.9 km/h (0 Bft) NW 0.00 h 0 W/m 15.7 C 16.3 C
02.08.2005 03:00 16.1 C 97 % 1016.4 hPa 0.0 l/m 0.5 km/h (0 Bft) W-NW 0.00 h 0 W/m 15.6 C 16.1 C
02.08.2005 04:00 16.0 C 96 % 1016.4 hPa 0.0 l/m 0.1 km/h (0 Bft) W-NW 0.00 h 0 W/m 15.4 C 16.0 C
02.08.2005 05:00 16.1 C 97 % 1016.3 hPa 0.0 l/m 0.5 km/h (0 Bft) W-NW 0.00 h 0 W/m 15.6 C 16.1 C
02.08.2005 06:00 16.3 C 96 % 1016.3 hPa 0.0 l/m 0.4 km/h (0 Bft) W-NW 0.00 h 7 W/m 15.6 C 16.3 C
02.08.2005 07:00 16.6 C 94 % 1016.2 hPa 0.0 l/m 0.1 km/h (0 Bft) N 0.00 h 24 W/m 15.6 C 16.6 C
02.08.2005 08:00 16.9 C 91 % 1015.3 hPa 0.0 l/m 2.1 km/h (1 Bft) W-NW 0.00 h 50 W/m 15.4 C 16.9 C
02.08.2005 09:00 17.0 C 90 % 1015.4 hPa 0.3 l/m 0.0 km/h (0 Bft) N 0.00 h 35 W/m 15.4 C 17.0 C
02.08.2005 10:00 16.7 C 93 % 1016.3 hPa 1.3 l/m 0.0 km/h (0 Bft) N 0.00 h 48 W/m 15.6 C 16.7 C
02.08.2005 11:00 16.7 C 94 % 1016.3 hPa 2.6 l/m 0.2 km/h (0 Bft) W-NW 0.00 h 116 W/m 15.8 C 16.7 C
02.08.2005 12:00 16.9 C 94 % 1016.2 hPa 0.0 l/m 0.1 km/h (0 Bft) N 0.00 h 138 W/m 16.0 C 16.9 C
02.08.2005 13:00 17.1 C 93 % 1015.5 hPa 0.0 l/m 2.2 km/h (1 Bft) NW 0.00 h 153 W/m 15.9 C 17.1 C
02.08.2005 14:00 17.3 C 91 % 1015.2 hPa 0.0 l/m 1.0 km/h (0 Bft) NW 0.00 h 110 W/m 15.9 C 17.3 C
02.08.2005 15:00 17.5 C 89 % 1015.4 hPa 0.3 l/m 0.6 km/h (0 Bft) W-NW 0.00 h 83 W/m 15.7 C 17.5 C
02.08.2005 16:00 16.6 C 91 % 1016.3 hPa 0.6 l/m 0.5 km/h (0 Bft) N-NW 0.00 h 55 W/m 15.2 C 16.6 C
02.08.2005 17:00 16.8 C 90 % 1016.3 hPa 0.0 l/m 0.1 km/h (0 Bft) N 0.00 h 48 W/m 15.1 C 16.8 C
02.08.2005 18:00 16.8 C 92 % 1016.3 hPa 1.3 l/m 0.1 km/h (0 Bft) N 0.00 h 29 W/m 15.4 C 16.8 C
02.08.2005 19:00 16.7 C 97 % 1016.3 hPa 1.6 l/m 0.0 km/h (0 Bft) N 0.00 h 20 W/m 16.1 C 16.7 C
02.08.2005 20:00 16.4 C 97 % 1016.3 hPa 2.0 l/m 0.8 km/h (0 Bft) W-NW 0.00 h 8 W/m 15.9 C 16.4 C
02.08.2005 21:00 15.9 C 99 % 1017.4 hPa 0.6 l/m 0.3 km/h (0 Bft) W-NW 0.00 h 0 W/m 15.8 C 15.9 C
02.08.2005 22:00 15.8 C 98 % 1018.3 hPa 1.0 l/m 0.0 km/h (0 Bft) N 0.00 h 0 W/m 15.6 C 15.8 C
02.08.2005 23:00 15.7 C 100 % 1018.5 hPa 0.3 l/m 0.0 km/h (0 Bft) N 0.00 h 0 W/m 15.7 C 15.7 C
03.08.2005 00:00 15.5 C 99 % 1018.5 hPa 0.3 l/m 2.0 km/h (1 Bft) W-NW 0.00 h 0 W/m 15.3 C 15.5 C
03.08.2005 01:00 15.0 C 98 % 1018.6 hPa 1.3 l/m 0.0 km/h (0 Bft) N 0.00 h 0 W/m 14.7 C 15.0 C
03.08.2005 02:00 14.6 C 100 % 1018.6 hPa 0.6 l/m 0.0 km/h (0 Bft) N 0.00 h 0 W/m 14.6 C 14.6 C
03.08.2005 03:00 14.5 C 100 % 1018.6 hPa 0.0 l/m 0.0 km/h (0 Bft) N 0.00 h 0 W/m 14.5 C 14.5 C
03.08.2005 04:00 14.4 C 100 % 1018.6 hPa 0.0 l/m 0.0 km/h (0 Bft) N 0.00 h 0 W/m 14.4 C 14.4 C
03.08.2005 05:00 14.6 C 100 % 1018.6 hPa 0.0 l/m 0.0 km/h (0 Bft) N 0.00 h 0 W/m 14.6 C 14.6 C
03.08.2005 06:00 14.8 C 100 % 1018.6 hPa 0.0 l/m 0.0 km/h (0 Bft) N 0.00 h 3 W/m 14.7 C 14.8 C
03.08.2005 07:00 15.0 C 98 % 1019.0 hPa 0.0 l/m 0.0 km/h (0 Bft) N 0.00 h 13 W/m 14.7 C 15.0 C
03.08.2005 08:00 15.0 C 97 % 1019.6 hPa 0.3 l/m 0.1 km/h (0 Bft) N 0.00 h 24 W/m 14.6 C 15.0 C
03.08.2005 09:00 14.9 C 95 % 1020.6 hPa 0.0 l/m 0.2 km/h (0 Bft) N 0.00 h 39 W/m 14.1 C 14.9 C
03.08.2005 10:00 15.2 C 93 % 1020.6 hPa 0.0 l/m 0.0 km/h (0 Bft) N 0.00 h 85 W/m 14.1 C 15.2 C
03.08.2005 11:00 15.5 C 93 % 1021.6 hPa 0.0 l/m 0.0 km/h (0 Bft) N 0.00 h 97 W/m 14.3 C 15.5 C
03.08.2005 12:00 15.8 C 91 % 1021.6 hPa 0.0 l/m 0.1 km/h (0 Bft) O-SO 0.00 h 132 W/m 14.4 C 15.8 C
03.08.2005 13:00 17.4 C 83 % 1021.4 hPa 0.0 l/m 1.8 km/h (1 Bft) W 0.13 h 383 W/m 14.5 C 17.4 C
03.08.2005 14:00 18.3 C 73 % 1021.3 hPa 0.0 l/m 8.2 km/h (2 Bft) W-NW 0.17 h 418 W/m 13.3 C 18.3 C
03.08.2005 15:00 20.8 C 65 % 1020.9 hPa 0.0 l/m 5.9 km/h (2 Bft) W-NW 0.70 h 650 W/m 14.0 C 20.8 C
03.08.2005 16:00 22.1 C 63 % 1020.8 hPa 0.0 l/m 4.4 km/h (1 Bft) O-SO 0.70 h 548 W/m 14.6 C 22.1 C
03.08.2005 17:00 19.8 C 70 % 1021.1 hPa 0.0 l/m 5.1 km/h (1 Bft) SO 0.10 h 145 W/m 14.2 C 19.8 C
03.08.2005 18:00 19.9 C 71 % 1021.0 hPa 0.0 l/m 3.2 km/h (1 Bft) SO 0.17 h 162 W/m 14.5 C 19.9 C
03.08.2005 19:00 18.8 C 74 % 1021.8 hPa 0.0 l/m 3.7 km/h (1 Bft) SO 0.00 h 56 W/m 14.2 C 18.8 C
03.08.2005 20:00 18.2 C 76 % 1022.3 hPa 0.0 l/m 3.8 km/h (1 Bft) SO 0.23 h 38 W/m 13.8 C 18.2 C
03.08.2005 21:00 16.5 C 84 % 1023.3 hPa 0.0 l/m 0.1 km/h (0 Bft) O-SO 0.00 h 0 W/m 13.8 C 16.5 C
03.08.2005 22:00 15.6 C 91 % 1023.7 hPa 0.0 l/m 6.2 km/h (2 Bft) O-SO 0.00 h 0 W/m 14.1 C 15.6 C
03.08.2005 23:00 14.6 C 96 % 1023.8 hPa 0.0 l/m 6.8 km/h (2 Bft) O 0.00 h 0 W/m 13.9 C 14.6 C
04.08.2005 00:00 14.6 C 98 % 1023.8 hPa 0.0 l/m 5.5 km/h (1 Bft) O 0.00 h 0 W/m 14.4 C 14.6 C
04.08.2005 01:00 15.1 C 98 % 1023.7 hPa 0.0 l/m 0.7 km/h (0 Bft) O 0.00 h 0 W/m 14.8 C 15.1 C
04.08.2005 02:00 14.8 C 98 % 1023.7 hPa 0.0 l/m 1.0 km/h (0 Bft) O-SO 0.00 h 0 W/m 14.5 C 14.8 C
04.08.2005 03:00 13.9 C 98 % 1022.9 hPa 0.0 l/m 0.0 km/h (0 Bft) N 0.00 h 0 W/m 13.5 C 13.9 C
04.08.2005 04:00 14.4 C 100 % 1022.8 hPa 0.0 l/m 0.0 km/h (0 Bft) N 0.00 h 0 W/m 14.4 C 14.4 C
04.08.2005 05:00 13.8 C 100 % 1023.3 hPa 0.0 l/m 0.0 km/h (0 Bft) N 0.00 h 0 W/m 13.8 C 13.8 C
04.08.2005 06:00 13.6 C 99 % 1023.9 hPa 0.0 l/m 0.0 km/h (0 Bft) N 0.00 h 12 W/m 13.5 C 13.6 C
04.08.2005 07:00 13.4 C 98 % 1024.5 hPa 0.0 l/m 0.4 km/h (0 Bft) NW 0.00 h 32 W/m 13.0 C 13.4 C
04.08.2005 08:00 13.6 C 96 % 1025.0 hPa 0.0 l/m 0.0 km/h (0 Bft) N 0.33 h 163 W/m 12.9 C 13.6 C
04.08.2005 09:00 15.0 C 88 % 1024.8 hPa 0.0 l/m 0.5 km/h (0 Bft) W-NW 1.00 h 489 W/m 13.0 C 15.0 C
04.08.2005 10:00 17.8 C 74 % 1024.4 hPa 0.0 l/m 1.3 km/h (1 Bft) O-SO 1.00 h 669 W/m 12.9 C 17.8 C
04.08.2005 11:00 19.6 C 59 % 1024.2 hPa 0.0 l/m 3.4 km/h (1 Bft) O-SO 0.62 h 576 W/m 11.4 C 19.6 C
04.08.2005 12:00 20.5 C 56 % 1024.1 hPa 0.0 l/m 5.2 km/h (1 Bft) O-SO 0.32 h 444 W/m 11.4 C 20.5 C
04.08.2005 13:00 19.1 C 65 % 1024.3 hPa 0.0 l/m 4.3 km/h (1 Bft) O-SO 0.03 h 158 W/m 12.2 C 19.1 C
04.08.2005 14:00 20.5 C 61 % 1023.3 hPa 0.0 l/m 6.2 km/h (2 Bft) O-SO 0.50 h 500 W/m 12.7 C 20.5 C
04.08.2005 15:00 20.7 C 54 % 1023.0 hPa 0.0 l/m 5.6 km/h (1 Bft) O-SO 0.13 h 228 W/m 11.0 C 20.7 C
04.08.2005 16:00 22.2 C 48 % 1022.8 hPa 0.0 l/m 6.2 km/h (2 Bft) O-SO 0.73 h 548 W/m 10.6 C 22.2 C
04.08.2005 17:00 21.6 C 51 % 1022.9 hPa 0.0 l/m 1.6 km/h (1 Bft) O-SO 0.23 h 235 W/m 10.8 C 21.6 C
04.08.2005 18:00 22.8 C 40 % 1022.8 hPa 0.0 l/m 1.8 km/h (1 Bft) O 0.97 h 378 W/m 8.3 C 22.8 C
04.08.2005 19:00 21.8 C 38 % 1022.9 hPa 0.0 l/m 0.1 km/h (0 Bft) N 0.90 h 211 W/m 6.9 C 21.8 C
04.08.2005 20:00 19.2 C 59 % 1024.0 hPa 0.0 l/m 0.7 km/h (0 Bft) N 0.77 h 69 W/m 10.9 C 19.2 C
04.08.2005 21:00 15.6 C 71 % 1024.7 hPa 0.0 l/m 0.8 km/h (0 Bft) O-SO 0.00 h 0 W/m 10.3 C 15.6 C
04.08.2005 22:00 13.9 C 78 % 1024.9 hPa 0.0 l/m 0.9 km/h (0 Bft) O-SO 0.00 h 0 W/m 10.2 C 13.9 C
04.08.2005 23:00 12.8 C 87 % 1025.1 hPa 0.0 l/m 1.7 km/h (1 Bft) O-SO 0.00 h 0 W/m 10.7 C 12.8 C
05.08.2005 00:00 11.9 C 93 % 1025.5 hPa 0.0 l/m 0.1 km/h (0 Bft) O-SO 0.00 h 0 W/m 10.8 C 11.9 C
05.08.2005 01:00 11.4 C 96 % 1025.3 hPa 0.0 l/m 2.9 km/h (1 Bft) O-SO 0.00 h 0 W/m 10.7 C 11.4 C
05.08.2005 02:00 10.7 C 97 % 1025.4 hPa 0.0 l/m 0.3 km/h (0 Bft) O-SO 0.00 h 0 W/m 10.2 C 10.7 C
05.08.2005 03:00 10.3 C 99 % 1025.4 hPa 0.0 l/m 1.2 km/h (1 Bft) O-SO 0.00 h 0 W/m 10.0 C 10.3 C
05.08.2005 04:00 9.7 C 100 % 1025.5 hPa 0.0 l/m 1.7 km/h (1 Bft) O-SO 0.00 h 0 W/m 9.7 C 9.7 C
05.08.2005 05:00 9.3 C 100 % 1025.6 hPa 0.0 l/m 0.8 km/h (0 Bft) O-SO 0.00 h 0 W/m 9.3 C 9.2 C
05.08.2005 06:00 9.3 C 100 % 1025.0 hPa 0.0 l/m 0.6 km/h (0 Bft) O-SO 0.03 h 25 W/m 9.3 C 9.3 C
05.08.2005 07:00 10.3 C 98 % 1025.2 hPa 0.0 l/m 0.0 km/h (0 Bft) N 0.87 h 167 W/m 10.1 C 10.3 C
05.08.2005 08:00 12.0 C 88 % 1024.8 hPa 0.0 l/m 0.0 km/h (0 Bft) N 1.00 h 344 W/m 10.1 C 12.0 C
05.08.2005 09:00 14.1 C 79 % 1023.9 hPa 0.0 l/m 0.1 km/h (0 Bft) N 1.00 h 495 W/m 10.6 C 14.1 C
05.08.2005 10:00 16.8 C 70 % 1023.5 hPa 0.0 l/m 1.7 km/h (1 Bft) O-SO 1.00 h 624 W/m 11.2 C 16.8 C
05.08.2005 11:00 19.0 C 58 % 1022.3 hPa 0.0 l/m 3.0 km/h (1 Bft) O-SO 1.00 h 725 W/m 10.6 C 19.0 C
05.08.2005 12:00 21.1 C 49 % 1021.7 hPa 0.0 l/m 5.5 km/h (1 Bft) O 1.00 h 788 W/m 9.9 C 21.1 C
05.08.2005 13:00 22.5 C 44 % 1020.7 hPa 0.0 l/m 5.7 km/h (1 Bft) W-NW 1.00 h 804 W/m 9.8 C 22.5 C
05.08.2005 14:00 23.7 C 40 % 1019.5 hPa 0.0 l/m 5.7 km/h (1 Bft) W-NW 1.00 h 791 W/m 9.3 C 23.7 C
05.08.2005 15:00 24.9 C 39 % 1019.4 hPa 0.0 l/m 9.7 km/h (2 Bft) NW 1.00 h 715 W/m 10.1 C 24.9 C
05.08.2005 16:00 25.5 C 37 % 1018.4 hPa 0.0 l/m 12.5 km/h (3 Bft) W-NW 1.00 h 637 W/m 9.8 C 25.5 C
05.08.2005 17:00 25.5 C 36 % 1018.2 hPa 0.0 l/m 20.2 km/h (4 Bft) W-NW 0.67 h 442 W/m 9.4 C 25.5 C
05.08.2005 18:00 23.5 C 40 % 1017.5 hPa 0.0 l/m 19.9 km/h (4 Bft) W-NW 0.00 h 137 W/m 9.3 C 23.5 C
05.08.2005 19:00 23.1 C 41 % 1017.5 hPa 0.0 l/m 22.4 km/h (4 Bft) W-NW 0.73 h 183 W/m 9.0 C 23.1 C
05.08.2005 20:00 21.8 C 47 % 1017.7 hPa 0.0 l/m 16.8 km/h (3 Bft) W-NW 0.07 h 21 W/m 10.0 C 21.8 C
05.08.2005 21:00 20.8 C 52 % 1017.8 hPa 0.0 l/m 6.6 km/h (2 Bft) W-NW 0.00 h 0 W/m 10.5 C 20.8 C
05.08.2005 22:00 20.5 C 53 % 1018.0 hPa 0.0 l/m 18.0 km/h (3 Bft) W-NW 0.00 h 0 W/m 10.5 C 20.5 C
05.08.2005 23:00 19.7 C 59 % 1018.8 hPa 0.0 l/m 22.3 km/h (4 Bft) W-NW 0.00 h 0 W/m 11.3 C 19.7 C
06.08.2005 00:00 17.0 C 82 % 1019.4 hPa 0.3 l/m 21.6 km/h (4 Bft) W-NW 0.00 h 0 W/m 13.8 C 17.0 C
06.08.2005 01:00 16.1 C 96 % 1019.5 hPa 0.3 l/m 5.8 km/h (2 Bft) W-NW 0.00 h 0 W/m 15.4 C 16.1 C
06.08.2005 02:00 15.9 C 98 % 1019.5 hPa 0.0 l/m 2.7 km/h (1 Bft) SO 0.00 h 0 W/m 15.6 C 15.9 C
06.08.2005 03:00 16.0 C 96 % 1019.5 hPa 0.3 l/m 0.6 km/h (0 Bft) W-NW 0.00 h 0 W/m 15.4 C 16.0 C
06.08.2005 04:00 16.1 C 97 % 1019.5 hPa 0.0 l/m 2.1 km/h (1 Bft) W 0.00 h 0 W/m 15.7 C 16.1 C
06.08.2005 05:00 16.0 C 98 % 1019.1 hPa 0.0 l/m 9.0 km/h (2 Bft) W-NW 0.00 h 0 W/m 15.7 C 16.0 C
06.08.2005 06:00 15.5 C 98 % 1019.5 hPa 0.0 l/m 3.3 km/h (1 Bft) SO 0.00 h 12 W/m 15.3 C 15.5 C
06.08.2005 07:00 16.2 C 94 % 1019.4 hPa 0.0 l/m 1.4 km/h (1 Bft) O-SO 0.00 h 59 W/m 15.3 C 16.2 C
06.08.2005 08:00 17.0 C 85 % 1019.3 hPa 0.0 l/m 2.2 km/h (1 Bft) W-NW 0.00 h 153 W/m 14.5 C 17.0 C
06.08.2005 09:00 17.7 C 80 % 1019.3 hPa 0.0 l/m 3.9 km/h (1 Bft) W-NW 0.00 h 195 W/m 14.1 C 17.7 C
06.08.2005 10:00 18.7 C 73 % 1019.0 hPa 0.0 l/m 6.2 km/h (2 Bft) W-NW 0.70 h 371 W/m 13.8 C 18.7 C
06.08.2005 11:00 19.6 C 65 % 1018.0 hPa 0.0 l/m 16.4 km/h (3 Bft) W-NW 1.00 h 524 W/m 12.9 C 19.6 C
06.08.2005 12:00 21.0 C 57 % 1017.8 hPa 0.0 l/m 17.8 km/h (3 Bft) W-NW 1.00 h 779 W/m 12.2 C 21.0 C
06.08.2005 13:00 21.8 C 55 % 1017.0 hPa 0.0 l/m 10.5 km/h (2 Bft) NW 0.70 h 592 W/m 12.3 C 21.8 C
06.08.2005 14:00 22.3 C 46 % 1016.4 hPa 0.0 l/m 15.7 km/h (3 Bft) NW 0.80 h 564 W/m 10.0 C 22.3 C
06.08.2005 15:00 22.5 C 45 % 1015.5 hPa 0.0 l/m 16.5 km/h (3 Bft) W-NW 0.60 h 444 W/m 10.0 C 22.5 C
06.08.2005 16:00 21.8 C 45 % 1015.6 hPa 0.0 l/m 17.5 km/h (3 Bft) W-NW 0.03 h 280 W/m 9.4 C 21.8 C
06.08.2005 17:00 20.7 C 49 % 1015.8 hPa 0.0 l/m 16.3 km/h (3 Bft) W-NW 0.00 h 127 W/m 9.7 C 20.7 C
06.08.2005 18:00 19.9 C 53 % 1015.9 hPa 0.0 l/m 7.7 km/h (2 Bft) W-NW 0.00 h 64 W/m 10.1 C 19.9 C
06.08.2005 19:00 19.0 C 59 % 1016.0 hPa 0.0 l/m 1.2 km/h (1 Bft) NW 0.00 h 33 W/m 10.8 C 19.0 C
06.08.2005 20:00 18.1 C 64 % 1016.1 hPa 0.0 l/m 0.0 km/h (0 Bft) N 0.00 h 11 W/m 11.1 C 18.1 C
06.08.2005 21:00 17.4 C 69 % 1016.4 hPa 0.0 l/m 1.4 km/h (1 Bft) W 0.00 h 0 W/m 11.6 C 17.4 C
06.08.2005 22:00 17.4 C 65 % 1016.2 hPa 0.0 l/m 4.0 km/h (1 Bft) W-NW 0.00 h 0 W/m 10.8 C 17.4 C
06.08.2005 23:00 17.2 C 63 % 1016.2 hPa 0.0 l/m 14.2 km/h (3 Bft) W-NW 0.00 h 0 W/m 10.0 C 17.2 C
07.08.2005 00:00 16.7 C 63 % 1016.3 hPa 0.0 l/m 9.1 km/h (2 Bft) W-NW 0.00 h 0 W/m 9.5 C 16.7 C
07.08.2005 01:00 16.3 C 63 % 1015.9 hPa 0.0 l/m 9.5 km/h (2 Bft) W-NW 0.00 h 0 W/m 9.2 C 16.3 C
07.08.2005 02:00 16.2 C 64 % 1015.3 hPa 0.0 l/m 17.3 km/h (3 Bft) W-NW 0.00 h 0 W/m 9.4 C 16.2 C
07.08.2005 03:00 15.7 C 69 % 1015.4 hPa 0.0 l/m 12.0 km/h (2 Bft) W-NW 0.00 h 0 W/m 10.1 C 15.7 C
07.08.2005 04:00 15.3 C 72 % 1015.4 hPa 0.0 l/m 9.0 km/h (2 Bft) W-NW 0.00 h 0 W/m 10.3 C 15.3 C
07.08.2005 05:00 14.9 C 70 % 1015.4 hPa 0.0 l/m 5.8 km/h (2 Bft) W-NW 0.00 h 0 W/m 9.6 C 14.9 C
07.08.2005 06:00 14.4 C 71 % 1014.9 hPa 0.0 l/m 3.3 km/h (1 Bft) W-NW 0.00 h 18 W/m 9.2 C 14.4 C
07.08.2005 07:00 14.3 C 70 % 1015.6 hPa 0.0 l/m 2.6 km/h (1 Bft) W-NW 0.00 h 50 W/m 8.9 C 14.3 C
07.08.2005 08:00 14.4 C 66 % 1015.2 hPa 0.0 l/m 3.1 km/h (1 Bft) W-NW 0.07 h 129 W/m 8.0 C 14.4 C
07.08.2005 09:00 14.8 C 62 % 1014.7 hPa 0.0 l/m 3.2 km/h (1 Bft) W-NW 0.30 h 263 W/m 7.5 C 14.8 C
07.08.2005 10:00 16.2 C 55 % 1014.4 hPa 0.0 l/m 6.2 km/h (2 Bft) W-NW 0.87 h 595 W/m 7.2 C 16.2 C
07.08.2005 11:00 17.4 C 44 % 1014.1 hPa 0.0 l/m 19.5 km/h (3 Bft) W-NW 0.67 h 519 W/m 5.1 C 17.4 C
07.08.2005 12:00 17.7 C 43 % 1014.1 hPa 0.0 l/m 15.0 km/h (3 Bft) NW 0.37 h 456 W/m 5.1 C 17.7 C
07.08.2005 13:00 17.7 C 44 % 1013.3 hPa 0.0 l/m 23.0 km/h (4 Bft) NW 0.53 h 546 W/m 5.1 C 17.7 C
07.08.2005 14:00 17.6 C 42 % 1013.2 hPa 0.0 l/m 20.8 km/h (4 Bft) W-NW 0.57 h 601 W/m 4.5 C 17.6 C
07.08.2005 15:00 17.6 C 46 % 1013.5 hPa 0.0 l/m 30.9 km/h (5 Bft) NW 0.30 h 407 W/m 5.5 C 17.6 C
07.08.2005 16:00 16.0 C 56 % 1014.3 hPa 0.0 l/m 15.4 km/h (3 Bft) W-NW 0.27 h 296 W/m 7.3 C 16.0 C
07.08.2005 17:00 18.1 C 49 % 1014.0 hPa 0.0 l/m 9.1 km/h (2 Bft) NW 0.63 h 438 W/m 7.2 C 18.1 C
07.08.2005 18:00 18.2 C 47 % 1014.0 hPa 0.0 l/m 10.6 km/h (2 Bft) NW 0.73 h 322 W/m 6.6 C 18.2 C
07.08.2005 19:00 17.6 C 50 % 1014.1 hPa 0.0 l/m 7.3 km/h (2 Bft) W-NW 0.50 h 153 W/m 7.0 C 17.6 C
07.08.2005 20:00 16.3 C 55 % 1014.2 hPa 0.0 l/m 7.6 km/h (2 Bft) W-NW 0.17 h 30 W/m 7.2 C 16.3 C
07.08.2005 21:00 13.6 C 66 % 1015.8 hPa 1.0 l/m 9.5 km/h (2 Bft) W-NW 0.00 h 0 W/m 7.3 C 13.6 C
07.08.2005 22:00 10.7 C 93 % 1017.1 hPa 2.9 l/m 2.7 km/h (1 Bft) O-SO 0.00 h 0 W/m 9.6 C 10.7 C
07.08.2005 23:00 10.3 C 98 % 1017.1 hPa 0.0 l/m 0.8 km/h (0 Bft) SO 0.00 h 0 W/m 10.0 C 10.2 C
Min-Datum _ 05.08.05 01.08.05 07.08.05 - 01.08.05 - - - 07.08.05 05.08.05
_ Min-Zeit 05:24 18:12 15:20 - 00:00 - - - 14:36 05:50
Minimum _ 9.0 C 34 % 1012.8 hPa - 0.0 km/h (0 Bft) - - - 3.4 C 8.8 C
Max-Datum _ 01.08.05 02.08.05 05.08.05 07.08.05 07.08.05 - 01.08.05 06.08.05 02.08.05 01.08.05
_ Max-Zeit 16:53 20:34 00:18 22:02 15:30 - 14:33 14:32 01:32 16:53
Maximum _ 27.4 C 100 % 1026.2 hPa 2.9 l/m 58.2 km/h
NW (7 Bft)
- 0.05 h 1022 W/m 16.9 C 27.4 C
Durchschnitt _ 17.5 C 74 % 1018.7 hPa #21.8 l/m 4.8 km/h (1 Bft) W-NW #41:35 h 296 W/m 12.1 C 17.5 C

Durchschnitt Minimum Temp.16.9 C
Durchschnitt Maximum Temp.18.1 C
© Kaiko 2005